Time;durP1;ratioP1;P1;durP2;ratioP2;P2;SDS_P1;SDS_P2;PMS_P1;PMS_P2;Temp;Humidity;BMP_temperature;BMP_pressure;BME280_temperature;BME280_humidity;BME280_pressure;Samples;Min_cycle;Max_cycle;Signal;HPM_P1;HPM_P2
2023/01/03 00:01:47;;;;;;;14.30;2.25;;;20.80;50.00;;;;;;5067227;28;20116;-72
2023/01/03 00:04:13;;;;;;;4.03;2.20;;;20.90;50.90;;;;;;5068343;28;20119;-72
2023/01/03 00:06:46;;;;;;;7.35;2.38;;;20.90;51.60;;;;;;5068346;28;20115;-72
2023/01/03 00:09:16;;;;;;;6.28;2.22;;;21.00;52.10;;;;;;5066823;28;20158;-72
2023/01/03 00:14:34;;;;;;;4.97;2.03;;;21.10;52.90;;;;;;5067333;28;20646;-72
2023/01/03 00:17:01;;;;;;;6.07;2.25;;;21.20;53.00;;;;;;5066722;28;20029;-72
2023/01/03 00:19:31;;;;;;;7.75;2.20;;;21.20;52.30;;;;;;5066519;28;20499;-72
2023/01/03 00:21:57;;;;;;;6.45;2.30;;;21.30;52.40;;;;;;5050217;28;20028;-72
2023/01/03 00:24:23;;;;;;;9.80;2.15;;;21.30;52.30;;;;;;5067938;28;20021;-72
2023/01/03 00:26:48;;;;;;;5.63;2.20;;;21.30;52.10;;;;;;5066646;28;20036;-72
2023/01/03 00:29:15;;;;;;;6.32;2.38;;;21.30;52.40;;;;;;5067422;28;20475;-72
2023/01/03 00:31:41;;;;;;;5.38;2.15;;;21.40;53.40;;;;;;5050000;28;20115;-72
2023/01/03 00:34:08;;;;;;;11.40;2.50;;;21.40;53.60;;;;;;5067801;28;20029;-72
2023/01/03 00:36:36;;;;;;;8.38;2.38;;;21.40;54.00;;;;;;5067529;28;20032;-72
2023/01/03 00:39:03;;;;;;;6.15;1.92;;;21.40;55.60;;;;;;5067209;28;20112;-72
2023/01/03 00:41:29;;;;;;;10.68;2.47;;;21.40;55.20;;;;;;5067582;28;20048;-72
2023/01/03 00:43:56;;;;;;;10.27;2.28;;;21.60;59.80;;;;;;5066267;28;20029;-72
2023/01/03 00:46:22;;;;;;;8.63;2.40;;;21.70;57.80;;;;;;5064138;28;20052;-72
2023/01/03 00:48:48;;;;;;;5.75;2.30;;;21.70;54.20;;;;;;5051116;28;20039;-72
2023/01/03 00:51:18;;;;;;;11.27;2.90;;;21.70;56.00;;;;;;5052063;28;20067;-72
2023/01/03 00:53:46;;;;;;;16.15;3.13;;;21.70;56.20;;;;;;5050823;28;20583;-73
2023/01/03 00:56:15;;;;;;;5.97;2.40;;;21.70;55.90;;;;;;5051933;28;20134;-72
2023/01/03 00:58:41;;;;;;;6.35;2.30;;;21.70;55.70;;;;;;5033802;28;20029;-72
2023/01/03 01:01:18;;;;;;;5.20;2.47;;;21.70;55.80;;;;;;5051760;28;20029;-72
2023/01/03 01:03:46;;;;;;;11.13;2.58;;;21.70;55.80;;;;;;5050806;28;20283;-72
2023/01/03 01:06:21;;;;;;;5.03;2.10;;;21.60;55.80;;;;;;5050418;28;20064;-72
2023/01/03 01:08:48;;;;;;;10.98;2.38;;;21.60;55.80;;;;;;5051589;28;20039;-72
2023/01/03 01:11:14;;;;;;;10.70;2.85;;;21.60;55.90;;;;;;5051705;28;20416;-72
2023/01/03 01:13:42;;;;;;;10.32;2.83;;;21.60;55.90;;;;;;5051662;28;20037;-72
2023/01/03 01:16:11;;;;;;;9.48;2.45;;;21.60;55.90;;;;;;5050302;28;20428;-72
2023/01/03 01:18:38;;;;;;;5.60;2.03;;;21.60;56.00;;;;;;5049939;28;20051;-72
2023/01/03 01:21:13;;;;;;;6.72;3.05;;;21.60;56.00;;;;;;5050302;28;20029;-72
2023/01/03 01:23:40;;;;;;;6.13;2.22;;;21.60;56.10;;;;;;5050432;28;20456;-72
2023/01/03 01:26:09;;;;;;;4.60;2.35;;;21.60;56.10;;;;;;5053251;28;20029;-72
2023/01/03 01:28:35;;;;;;;4.68;2.20;;;21.60;56.70;;;;;;5053153;28;20029;-72
2023/01/03 01:31:03;;;;;;;7.80;2.63;;;21.60;56.20;;;;;;5052393;28;20043;-72
2023/01/03 01:33:31;;;;;;;7.47;2.30;;;21.60;56.20;;;;;;5044383;28;20029;-72
2023/01/03 01:35:57;;;;;;;5.85;2.42;;;21.60;56.20;;;;;;5042667;28;20714;-72
2023/01/03 01:38:23;;;;;;;6.15;2.38;;;21.60;56.30;;;;;;5041900;28;20140;-72
2023/01/03 01:40:48;;;;;;;4.38;2.10;;;21.60;56.20;;;;;;5042971;28;20496;-73
2023/01/03 01:46:25;;;;;;;3.35;2.00;;;21.60;56.20;;;;;;5042734;28;20028;-72
2023/01/03 01:49:03;;;;;;;6.10;2.30;;;21.60;56.40;;;;;;5042158;28;20071;-71
2023/01/03 01:51:32;;;;;;;7.33;2.43;;;21.60;56.60;;;;;;5042187;28;20499;-78
2023/01/03 01:54:00;;;;;;;18.65;11.57;;;21.60;56.30;;;;;;5024238;28;20033;-78
2023/01/03 01:56:32;;;;;;;19.30;10.93;;;21.40;53.20;;;;;;5020581;28;20025;-72
2023/01/03 01:58:58;;;;;;;18.10;10.02;;;21.30;51.50;;;;;;5040430;28;20032;-71
2023/01/03 02:01:24;;;;;;;19.55;10.90;;;21.30;51.50;;;;;;5043391;28;20021;-72
2023/01/03 02:03:56;;;;;;;17.70;9.60;;;21.30;51.70;;;;;;5042128;28;20018;-72
2023/01/03 02:06:24;;;;;;;14.82;8.63;;;21.30;52.40;;;;;;5041351;28;20026;-72
2023/01/03 02:08:50;;;;;;;16.05;9.18;;;21.30;52.60;;;;;;5042760;28;20096;-71
2023/01/03 02:11:23;;;;;;;13.43;8.07;;;21.40;52.60;;;;;;5042813;28;20119;-71
2023/01/03 02:14:30;;;;;;;14.68;7.78;;;21.40;53.00;;;;;;5041985;28;20025;-71
2023/01/03 02:17:02;;;;;;;14.45;8.10;;;21.40;52.80;;;;;;5010915;28;20128;-71
2023/01/03 02:19:58;;;;;;;14.95;8.52;;;21.40;53.20;;;;;;5018897;28;20096;-71
2023/01/03 02:23:02;;;;;;;15.13;8.23;;;21.40;53.00;;;;;;5030068;28;20037;-71
2023/01/03 02:26:00;;;;;;;13.27;7.72;;;21.40;53.30;;;;;;5042600;28;20384;-71
2023/01/03 02:28:36;;;;;;;14.95;7.90;;;21.40;53.20;;;;;;5040676;28;20416;-71
2023/01/03 02:31:04;;;;;;;13.90;7.82;;;21.40;53.50;;;;;;5034551;28;20036;-72
2023/01/03 02:33:55;;;;;;;12.98;7.60;;;21.50;53.50;;;;;;5031184;28;20440;-72
2023/01/03 02:36:51;;;;;;;13.43;7.63;;;21.50;53.50;;;;;;5032176;28;20025;-72
2023/01/03 02:39:36;;;;;;;13.02;7.20;;;21.50;53.60;;;;;;5031763;28;20033;-72
2023/01/03 02:45:41;;;;;;;15.55;7.25;;;21.50;53.70;;;;;;5030919;28;20136;-72
2023/01/03 02:48:41;;;;;;;13.63;8.52;;;21.40;53.60;;;;;;5031698;28;20025;-72
2023/01/03 02:51:26;;;;;;;12.38;6.95;;;21.50;53.80;;;;;;5032244;28;20130;-71
2023/01/03 02:53:53;;;;;;;11.65;7.13;;;21.50;53.80;;;;;;5031926;28;20029;-71
2023/01/03 02:56:29;;;;;;;12.77;7.18;;;21.40;53.80;;;;;;5031801;28;20029;-71
2023/01/03 02:59:04;;;;;;;11.52;7.05;;;21.40;53.90;;;;;;5030455;28;20037;-71
2023/01/03 03:01:32;;;;;;;13.27;7.10;;;21.50;54.00;;;;;;5031849;28;20067;-71
2023/01/03 03:04:00;;;;;;;9.98;6.00;;;21.40;54.00;;;;;;5031863;28;20025;-71
2023/01/03 03:06:53;;;;;;;13.98;6.40;;;21.40;54.00;;;;;;5030675;28;20036;-71
2023/01/03 03:09:19;;;;;;;11.90;6.80;;;21.50;54.10;;;;;;5031437;28;20033;-71
2023/01/03 03:14:39;;;;;;;11.93;6.45;;;21.50;54.20;;;;;;5031653;28;20032;-71
2023/01/03 03:17:11;;;;;;;11.80;6.68;;;21.50;54.80;;;;;;5031630;28;20148;-71
2023/01/03 03:25:34;;;;;;;12.27;5.90;;;21.50;54.20;;;;;;5031575;28;20065;-71
2023/01/03 03:30:54;;;;;;;10.13;6.03;;;21.50;54.30;;;;;;5031673;28;20515;-71
2023/01/03 03:33:25;;;;;;;9.23;5.57;;;21.50;54.20;;;;;;5031457;28;20037;-71
2023/01/03 03:36:03;;;;;;;9.15;5.70;;;21.50;54.20;;;;;;5031292;28;20555;-71
2023/01/03 03:38:38;;;;;;;11.38;6.20;;;21.50;54.30;;;;;;5029713;28;20374;-71
2023/01/03 03:46:48;;;;;;;9.95;6.05;;;21.50;54.30;;;;;;5031341;28;20037;-71
2023/01/03 03:49:38;;;;;;;10.40;5.50;;;21.50;54.40;;;;;;5030983;28;20026;-71
2023/01/03 03:52:21;;;;;;;9.23;5.22;;;21.50;54.40;;;;;;5031279;28;20092;-70
2023/01/03 03:54:53;;;;;;;9.07;5.65;;;21.50;54.50;;;;;;5031812;28;20033;-71
2023/01/03 03:57:31;;;;;;;9.75;5.47;;;21.50;54.40;;;;;;5031197;28;20173;-71
2023/01/03 04:00:21;;;;;;;11.70;5.75;;;21.40;54.40;;;;;;5029803;28;20052;-71
2023/01/03 04:02:47;;;;;;;;;;;21.50;54.50;;;;;;5031805;28;20026;-71
2023/01/03 04:05:19;;;;;;;8.35;5.13;;;21.50;54.50;;;;;;5013777;28;20011;-71
2023/01/03 04:07:45;;;;;;;10.10;5.88;;;21.50;54.50;;;;;;5029553;28;20040;-71
2023/01/03 04:10:12;;;;;;;12.52;5.40;;;21.50;54.60;;;;;;5030922;28;20076;-71
2023/01/03 04:12:38;;;;;;;8.55;5.18;;;21.40;54.50;;;;;;5031079;28;20110;-71
2023/01/03 04:15:06;;;;;;;9.70;5.53;;;21.40;54.60;;;;;;5030954;28;20033;-71
2023/01/03 04:17:32;;;;;;;9.15;5.40;;;21.40;54.60;;;;;;5031337;28;20473;-71
2023/01/03 04:19:58;;;;;;;9.45;5.63;;;21.40;54.60;;;;;;5029433;28;20029;-71
2023/01/03 04:22:24;;;;;;;8.65;5.18;;;21.50;54.70;;;;;;5014150;28;20029;-71
2023/01/03 04:24:49;;;;;;;9.35;5.25;;;21.40;54.60;;;;;;5034859;28;20030;-71
2023/01/03 04:27:15;;;;;;;9.82;5.47;;;21.40;54.60;;;;;;5033595;28;20045;-71
2023/01/03 04:29:41;;;;;;;9.35;5.32;;;21.50;54.60;;;;;;5032973;28;20168;-71
2023/01/03 04:32:07;;;;;;;9.02;5.05;;;21.50;54.60;;;;;;5034548;28;20037;-71
2023/01/03 04:34:33;;;;;;;8.15;5.40;;;21.50;54.60;;;;;;5034526;28;20124;-71
2023/01/03 04:36:58;;;;;;;9.25;5.35;;;21.50;54.60;;;;;;5032981;28;20120;-71
2023/01/03 04:39:24;;;;;;;9.23;5.13;;;21.50;54.60;;;;;;5032844;28;20031;-71
2023/01/03 04:41:50;;;;;;;8.05;4.82;;;21.50;54.60;;;;;;5033224;28;20059;-71
2023/01/03 04:44:15;;;;;;;9.52;4.88;;;21.50;54.60;;;;;;5033207;28;20030;-71
2023/01/03 04:46:41;;;;;;;8.80;5.00;;;21.50;54.70;;;;;;5033135;28;20037;-71
2023/01/03 04:49:09;;;;;;;6.88;4.45;;;21.50;54.70;;;;;;5016276;28;20034;-71
2023/01/03 04:51:35;;;;;;;9.05;4.80;;;21.40;54.70;;;;;;5034203;28;20040;-71
2023/01/03 04:54:01;;;;;;;8.27;4.85;;;21.40;54.70;;;;;;5034258;28;20025;-71
2023/01/03 04:56:35;;;;;;;9.40;4.72;;;21.50;54.80;;;;;;5034135;28;20061;-71
2023/01/03 04:59:01;;;;;;;9.10;4.68;;;21.40;54.70;;;;;;5033776;28;20458;-71
2023/01/03 05:01:27;;;;;;;7.15;4.70;;;21.40;54.70;;;;;;5034084;28;20108;-71
2023/01/03 05:03:59;;;;;;;8.15;4.63;;;21.40;54.70;;;;;;5032930;28;20017;-71
2023/01/03 05:06:27;;;;;;;8.05;5.28;;;21.40;54.70;;;;;;5048843;28;20393;-71
2023/01/03 05:08:53;;;;;;;6.50;4.43;;;21.40;54.80;;;;;;5052784;28;20112;-71
2023/01/03 05:11:19;;;;;;;7.85;3.92;;;21.40;54.80;;;;;;5052826;28;20598;-71
2023/01/03 05:13:44;;;;;;;8.10;4.40;;;21.40;55.00;;;;;;5051882;28;20123;-71
2023/01/03 05:16:12;;;;;;;9.90;4.88;;;21.40;54.80;;;;;;5053608;28;20025;-71
2023/01/03 05:18:38;;;;;;;6.93;4.50;;;21.40;54.80;;;;;;5053388;28;20051;-71
2023/01/03 05:26:45;;;;;;;6.18;4.07;;;21.40;54.80;;;;;;5053431;28;20040;-71
2023/01/03 05:29:14;;;;;;;6.85;3.97;;;21.40;54.80;;;;;;5053176;28;20477;-72
2023/01/03 05:31:40;;;;;;;6.63;4.30;;;21.40;54.80;;;;;;5053512;28;20033;-72
2023/01/03 05:34:06;;;;;;;7.55;4.25;;;21.50;54.80;;;;;;5051972;28;20037;-72
2023/01/03 05:36:32;;;;;;;7.32;4.13;;;21.40;54.70;;;;;;5053223;28;20033;-72
2023/01/03 05:38:57;;;;;;;7.47;4.38;;;21.50;54.70;;;;;;5052852;28;20029;-72
2023/01/03 05:44:08;;;;;;;6.07;3.55;;;21.40;54.80;;;;;;5053273;28;20053;-71
2023/01/03 05:46:33;;;;;;;7.30;4.22;;;21.40;54.80;;;;;;5053064;28;20056;-72
2023/01/03 05:48:59;;;;;;;7.47;4.40;;;21.50;54.80;;;;;;5052779;28;20029;-72
2023/01/03 05:51:25;;;;;;;6.40;4.65;;;21.50;54.80;;;;;;5053153;28;20032;-71
2023/01/03 05:53:51;;;;;;;7.45;4.15;;;21.40;54.80;;;;;;5052312;28;20033;-72
2023/01/03 05:56:17;;;;;;;6.47;3.97;;;21.40;54.80;;;;;;5051533;28;20484;-72
2023/01/03 05:58:43;;;;;;;8.20;4.30;;;21.50;54.90;;;;;;5052490;28;20024;-72
2023/01/03 06:01:10;;;;;;;9.20;4.35;;;21.50;54.90;;;;;;5052806;28;20100;-71
2023/01/03 06:03:36;;;;;;;5.80;4.03;;;21.40;54.90;;;;;;5052865;28;20436;-72
2023/01/03 06:06:03;;;;;;;6.78;3.83;;;21.50;54.90;;;;;;5052667;28;20056;-72
2023/01/03 06:08:29;;;;;;;7.90;4.25;;;21.40;54.90;;;;;;5052349;28;20404;-72
2023/01/03 06:10:55;;;;;;;7.10;4.07;;;21.40;54.80;;;;;;5052596;28;20104;-72
2023/01/03 06:13:22;;;;;;;6.57;3.88;;;21.40;54.90;;;;;;5052785;28;20070;-72
2023/01/03 06:17:53;;;;;;;5.60;3.55;;;21.40;54.90;;;;;;5052495;28;20661;-72
2023/01/03 06:18:35;;;;;;;8.80;4.10;;;21.40;54.90;;;;;;5051003;28;20029;-72
2023/01/03 06:21:05;;;;;;;7.72;4.03;;;21.40;54.90;;;;;;5052460;28;20029;-72
2023/01/03 06:23:31;;;;;;;8.57;4.20;;;21.40;54.90;;;;;;5051423;28;20064;-72
2023/01/03 06:25:57;;;;;;;8.15;4.25;;;21.40;54.90;;;;;;5052350;28;20067;-72
2023/01/03 06:28:22;;;;;;;6.10;3.80;;;21.40;54.90;;;;;;5034134;28;20033;-72
2023/01/03 06:30:48;;;;;;;6.75;4.10;;;21.40;54.90;;;;;;5052251;28;20029;-72
2023/01/03 06:33:14;;;;;;;7.05;3.78;;;21.40;54.90;;;;;;5052222;28;20036;-71
2023/01/03 06:35:39;;;;;;;7.63;4.28;;;21.40;55.40;;;;;;5052280;28;20029;-71
2023/01/03 06:38:05;;;;;;;6.85;3.88;;;21.40;54.80;;;;;;5050674;28;20029;-71
2023/01/03 06:40:31;;;;;;;7.05;3.90;;;21.50;54.80;;;;;;5052112;28;20439;-71
2023/01/03 06:42:58;;;;;;;6.03;3.90;;;21.50;54.80;;;;;;5050717;28;20036;-71
2023/01/03 06:53:41;;;;;;;7.47;4.28;;;21.40;54.80;;;;;;5050841;28;20025;-71
2023/01/03 06:56:08;;;;;;;7.10;3.93;;;21.50;54.90;;;;;;5051881;28;20031;-71
2023/01/03 06:58:34;;;;;;;7.32;3.80;;;21.40;54.80;;;;;;5051521;28;20029;-71
2023/01/03 07:01:02;;;;;;;6.90;4.10;;;21.40;54.90;;;;;;5051773;28;20036;-71
2023/01/03 07:03:30;;;;;;;6.88;4.10;;;21.40;54.90;;;;;;5051597;28;20036;-72
2023/01/03 07:05:55;;;;;;;7.82;4.30;;;21.40;54.90;;;;;;5051641;28;20037;-71
2023/01/03 07:08:21;;;;;;;7.80;4.38;;;21.40;54.90;;;;;;5051442;28;20103;-71
2023/01/03 07:10:47;;;;;;;6.53;4.03;;;21.40;54.90;;;;;;5050393;28;20116;-72
2023/01/03 07:15:57;;;;;;;7.97;4.18;;;21.40;54.90;;;;;;5051491;28;20033;-71
2023/01/03 07:18:25;;;;;;;8.18;4.25;;;21.40;54.90;;;;;;5033264;28;20366;-71
2023/01/03 07:20:50;;;;;;;7.78;4.50;;;21.40;54.90;;;;;;5051537;28;20029;-71
2023/01/03 07:23:16;;;;;;;9.43;4.45;;;21.40;55.00;;;;;;5051422;28;20078;-71
2023/01/03 07:25:42;;;;;;;7.70;4.13;;;21.40;55.00;;;;;;5051487;28;20107;-71
2023/01/03 07:28:12;;;;;;;7.97;4.22;;;21.40;55.00;;;;;;5050986;28;20527;-71
2023/01/03 07:30:42;;;;;;;;;;;21.40;55.00;;;;;;5050555;28;20439;-71
2023/01/03 07:33:09;;;;;;;7.40;4.32;;;21.40;54.90;;;;;;5050017;28;20014;-72
2023/01/03 07:35:36;;;;;;;8.57;4.25;;;21.40;54.90;;;;;;5051175;28;20040;-71
2023/01/03 07:38:03;;;;;;;8.07;4.50;;;21.40;54.90;;;;;;5050818;28;20400;-71
2023/01/03 07:40:29;;;;;;;8.40;4.30;;;21.40;54.90;;;;;;5051398;28;20036;-71
2023/01/03 07:45:44;;;;;;;7.40;3.92;;;21.40;54.90;;;;;;5051370;28;20029;-72
2023/01/03 07:48:10;;;;;;;7.78;4.25;;;21.40;54.90;;;;;;5049664;28;20028;-72
2023/01/03 07:50:37;;;;;;;6.47;4.10;;;21.40;54.80;;;;;;5051222;28;20315;-72
2023/01/03 07:53:04;;;;;;;7.72;4.43;;;21.40;54.90;;;;;;5050493;28;20028;-72
2023/01/03 07:55:35;;;;;;;7.55;4.25;;;21.50;54.90;;;;;;5051114;28;20078;-72
2023/01/03 07:58:00;;;;;;;8.32;4.32;;;21.40;54.80;;;;;;5052623;28;20025;-72
2023/01/03 08:00:26;;;;;;;9.65;4.50;;;21.40;54.90;;;;;;5055230;28;20366;-72
2023/01/03 08:02:53;;;;;;;9.07;4.72;;;21.40;54.90;;;;;;5053954;28;20021;-72
2023/01/03 08:05:20;;;;;;;7.07;4.28;;;21.40;54.90;;;;;;5055140;28;20025;-71
2023/01/03 08:07:48;;;;;;;7.57;4.55;;;21.40;55.00;;;;;;5054664;28;20040;-71
2023/01/03 08:13:18;;;;;;;7.22;4.50;;;21.40;54.90;;;;;;5053831;28;20125;-72
2023/01/03 08:15:44;;;;;;;9.45;4.63;;;21.40;54.90;;;;;;5053787;28;20036;-71
2023/01/03 08:18:11;;;;;;;8.10;4.20;;;21.40;55.00;;;;;;5054386;28;20032;-72
2023/01/03 08:20:37;;;;;;;7.50;4.35;;;21.40;54.90;;;;;;5053512;28;20029;-71
2023/01/03 08:23:03;;;;;;;7.60;4.25;;;21.40;54.90;;;;;;5054686;28;20078;-71
2023/01/03 08:25:29;;;;;;;8.07;4.55;;;21.40;55.00;;;;;;5053635;28;20025;-71
2023/01/03 08:27:59;;;;;;;7.07;4.28;;;21.40;54.90;;;;;;5054131;28;20310;-71
2023/01/03 08:30:25;;;;;;;8.50;4.65;;;21.40;55.00;;;;;;5053691;28;20032;-71
2023/01/03 08:32:53;;;;;;;8.25;4.55;;;21.40;54.90;;;;;;5053229;28;20095;-71
2023/01/03 08:35:20;;;;;;;8.52;4.53;;;21.40;55.00;;;;;;5054313;28;20029;-72
2023/01/03 08:37:47;;;;;;;9.13;5.07;;;21.40;55.00;;;;;;5052871;28;20499;-71
2023/01/03 08:40:16;;;;;;;8.00;4.57;;;21.40;55.00;;;;;;5054381;28;20028;-71
2023/01/03 08:42:43;;;;;;;8.47;4.53;;;21.40;54.90;;;;;;5054396;28;20021;-71
2023/01/03 08:45:14;;;;;;;9.43;5.10;;;21.50;55.00;;;;;;5054517;28;20393;-71
2023/01/03 08:47:41;;;;;;;9.07;4.80;;;21.40;54.80;;;;;;5054211;28;20048;-71
2023/01/03 08:50:08;;;;;;;8.48;4.78;;;21.40;54.80;;;;;;5054039;28;20021;-71
2023/01/03 08:52:34;;;;;;;7.13;4.10;;;21.50;54.90;;;;;;5054300;28;20044;-71
2023/01/03 08:55:00;;;;;;;7.40;4.32;;;21.40;54.90;;;;;;5053069;28;20075;-71
2023/01/03 08:57:26;;;;;;;9.88;4.85;;;21.40;54.90;;;;;;5054057;28;20123;-71
2023/01/03 08:59:51;;;;;;;7.07;4.50;;;21.40;54.90;;;;;;5053611;28;20025;-71
2023/01/03 09:02:17;;;;;;;8.07;4.97;;;21.40;54.90;;;;;;5053937;28;20086;-71
2023/01/03 09:04:43;;;;;;;7.32;4.22;;;21.40;54.80;;;;;;5053993;28;20025;-71
2023/01/03 09:07:09;;;;;;;7.38;4.65;;;21.40;54.90;;;;;;5054004;28;20033;-71
2023/01/03 09:09:34;;;;;;;7.00;4.55;;;21.40;54.90;;;;;;5051811;28;20481;-71
2023/01/03 09:12:00;;;;;;;8.07;5.00;;;21.40;55.00;;;;;;5052583;28;20029;-71
2023/01/03 09:14:28;;;;;;;8.00;4.95;;;21.40;54.90;;;;;;5053720;28;20043;-71
2023/01/03 09:16:54;;;;;;;8.10;4.82;;;21.40;55.00;;;;;;5053546;28;20389;-71
2023/01/03 09:19:19;;;;;;;9.20;4.75;;;21.40;55.00;;;;;;5053245;28;20033;-71
2023/01/03 09:21:45;;;;;;;9.15;4.88;;;21.40;54.90;;;;;;5053933;28;20044;-71
2023/01/03 09:24:11;;;;;;;8.05;4.72;;;21.40;54.90;;;;;;5052517;28;20052;-71
2023/01/03 09:26:37;;;;;;;7.75;4.53;;;21.40;55.00;;;;;;5053705;28;20108;-71
2023/01/03 09:29:03;;;;;;;8.52;4.65;;;21.40;55.10;;;;;;5052967;28;20094;-71
2023/01/03 09:31:33;;;;;;;6.93;4.53;;;21.40;55.00;;;;;;5053241;28;20024;-72
2023/01/03 09:34:04;;;;;;;;;;;21.40;54.90;;;;;;5052641;28;20025;-72
2023/01/03 09:36:30;;;;;;;8.23;5.15;;;21.40;54.90;;;;;;5052033;28;20265;-72
2023/01/03 09:38:56;;;;;;;9.65;4.80;;;21.40;54.90;;;;;;5052851;28;20498;-71
2023/01/03 09:41:24;;;;;;;9.35;4.93;;;21.40;55.00;;;;;;5053335;28;20032;-71
2023/01/03 09:44:05;;;;;;;9.43;4.90;;;21.40;54.90;;;;;;5035399;28;20280;-72
2023/01/03 09:46:34;;;;;;;8.23;4.60;;;21.40;54.90;;;;;;5053358;28;20037;-72
2023/01/03 09:49:01;;;;;;;9.32;4.88;;;21.40;54.90;;;;;;5052724;28;20192;-72
2023/01/03 10:03:55;;;;;;;8.20;4.93;;;21.40;54.80;;;;;;5052911;28;20025;-71
2023/01/03 10:06:54;;;;;;;9.68;5.43;;;21.40;54.80;;;;;;5053141;28;20028;-72
2023/01/03 10:09:42;;;;;;;8.57;4.57;;;21.40;54.80;;;;;;5051029;28;20401;-71
2023/01/03 10:12:29;;;;;;;9.18;4.80;;;21.40;54.80;;;;;;5052734;28;20036;-71
2023/01/03 10:15:17;;;;;;;9.18;4.90;;;21.40;54.90;;;;;;5052622;28;20449;-71
2023/01/03 10:18:05;;;;;;;8.68;5.15;;;21.40;55.50;;;;;;5052585;28;20043;-71
2023/01/03 10:20:43;;;;;;;8.63;4.60;;;21.40;54.90;;;;;;5034028;28;20108;-72
2023/01/03 10:23:10;;;;;;;8.57;5.20;;;21.40;54.90;;;;;;5051644;28;20063;-71
2023/01/03 10:25:38;;;;;;;10.45;4.95;;;21.40;54.90;;;;;;5051076;28;20515;-72
2023/01/03 10:28:24;;;;;;;7.15;4.63;;;21.40;54.90;;;;;;5052297;28;20681;-72
2023/01/03 10:31:01;;;;;;;7.50;4.70;;;21.40;54.90;;;;;;5051165;28;20397;-72
2023/01/03 10:33:40;;;;;;;7.97;4.55;;;21.40;54.90;;;;;;5052280;28;20029;-71
2023/01/03 10:36:07;;;;;;;10.03;5.23;;;21.40;54.90;;;;;;5052079;28;20032;-71
2023/01/03 10:38:34;;;;;;;9.75;4.90;;;21.40;55.00;;;;;;5051895;28;20028;-71
2023/01/03 10:41:01;;;;;;;8.25;4.55;;;21.40;55.00;;;;;;5052153;28;20489;-71
2023/01/03 10:43:32;;;;;;;8.10;4.78;;;21.40;54.90;;;;;;5051401;28;20017;-71
2023/01/03 10:46:12;;;;;;;10.80;5.00;;;21.40;54.90;;;;;;5051941;28;20115;-71
2023/01/03 10:48:41;;;;;;;7.45;4.45;;;21.40;54.90;;;;;;5051657;28;20036;-71
2023/01/03 10:51:38;;;;;;;7.40;5.30;;;21.40;54.90;;;;;;5051891;28;20021;-71
2023/01/03 10:54:20;;;;;;;8.85;4.82;;;21.40;54.80;;;;;;5050723;28;20043;-71
2023/01/03 10:56:47;;;;;;;8.90;4.72;;;21.40;54.80;;;;;;5050516;28;20072;-71
2023/01/03 10:59:26;;;;;;;8.32;4.28;;;21.40;54.70;;;;;;5051379;28;20040;-71
2023/01/03 11:02:11;;;;;;;9.20;4.68;;;21.40;54.70;;;;;;5051804;28;20094;-71
2023/01/03 11:04:38;;;;;;;9.38;5.15;;;21.40;54.80;;;;;;5051785;28;20025;-72
2023/01/03 11:07:07;;;;;;;7.20;4.88;;;21.40;54.70;;;;;;5040321;28;20100;-75
2023/01/03 11:09:55;;;;;;;14.70;4.53;;;21.40;54.80;;;;;;5030106;28;20090;-72
2023/01/03 11:12:37;;;;;;;9.48;3.75;;;21.30;52.60;;;;;;5031375;28;20039;-72
2023/01/03 11:15:32;;;;;;;13.70;3.97;;;21.20;52.00;;;;;;5031141;28;20026;-72
2023/01/03 11:18:00;;;;;;;12.13;3.97;;;21.20;53.10;;;;;;5029933;28;20029;-71
2023/01/03 11:20:53;;;;;;;9.73;4.50;;;21.30;53.40;;;;;;5044189;28;20052;-71
2023/01/03 11:23:54;;;;;;;10.75;4.32;;;21.30;53.60;;;;;;5046929;28;20106;-72
2023/01/03 11:26:39;;;;;;;15.60;5.40;;;21.40;54.20;;;;;;5037795;28;20049;-72
2023/01/03 11:29:23;;;;;;;8.50;3.97;;;21.50;55.70;;;;;;5046525;28;20083;-72
2023/01/03 11:32:00;;;;;;;16.35;4.57;;;21.50;55.50;;;;;;5045893;28;20416;-72
2023/01/03 11:34:59;;;;;;;10.15;4.03;;;21.60;55.50;;;;;;5043807;28;20107;-72
2023/01/03 11:37:31;;;;;;;18.85;4.85;;;21.60;56.20;;;;;;5028364;28;20041;-72
2023/01/03 11:40:16;;;;;;;11.60;3.88;;;21.50;56.10;;;;;;5044857;28;20037;-72
2023/01/03 11:43:12;;;;;;;17.65;5.78;;;21.50;56.10;;;;;;5046234;28;20127;-72
2023/01/03 11:46:00;;;;;;;12.60;3.58;;;21.50;56.20;;;;;;5041391;28;20392;-72
2023/01/03 11:48:50;;;;;;;15.65;4.70;;;21.50;56.10;;;;;;5045732;28;20099;-72
2023/01/03 11:51:36;;;;;;;10.50;3.80;;;21.50;56.20;;;;;;5044866;28;20079;-72
2023/01/03 11:54:10;;;;;;;11.40;4.45;;;21.50;56.30;;;;;;5045333;28;20041;-72
2023/01/03 11:56:45;;;;;;;11.20;3.83;;;21.50;56.30;;;;;;5040583;28;20204;-72
2023/01/03 11:59:39;;;;;;;12.45;4.22;;;21.50;56.40;;;;;;5044198;28;20025;-71
2023/01/03 12:02:26;;;;;;;10.10;4.15;;;21.50;56.40;;;;;;5044206;28;20029;-71
2023/01/03 12:05:12;;;;;;;9.55;4.10;;;21.50;56.70;;;;;;5046323;28;20036;-71
2023/01/03 12:07:49;;;;;;;10.73;4.07;;;21.50;56.60;;;;;;5046524;28;20033;-73
2023/01/03 12:10:23;;;;;;;14.85;4.07;;;21.50;56.80;;;;;;5044602;28;20061;-72
2023/01/03 12:13:34;;;;;;;22.25;4.22;;;21.50;57.00;;;;;;5025222;28;20044;-73
2023/01/03 12:16:12;;;;;;;19.65;4.13;;;21.60;56.90;;;;;;5033025;28;20040;-73
2023/01/03 12:18:41;;;;;;;25.77;4.95;;;21.60;57.00;;;;;;5056057;22;20016;-74
2023/01/03 12:21:19;;;;;;;19.67;4.53;;;21.60;57.10;;;;;;5025516;28;20260;-73
2023/01/03 12:23:57;;;;;;;17.48;4.32;;;21.50;56.90;;;;;;5028482;28;20024;-73
2023/01/03 12:26:25;;;;;;;18.35;4.47;;;21.50;56.80;;;;;;5046659;28;20048;-74
2023/01/03 12:29:12;;;;;;;13.20;4.45;;;21.50;57.10;;;;;;5022433;28;20124;-74
2023/01/03 12:31:45;;;;;;;22.73;4.43;;;21.50;56.80;;;;;;5009623;28;20038;-74
2023/01/03 12:34:38;;;;;;;16.95;4.13;;;21.50;56.90;;;;;;5045556;28;20029;-74
2023/01/03 12:37:19;;;;;;;16.05;4.70;;;21.50;57.20;;;;;;5029156;28;20132;-75
2023/01/03 12:40:03;;;;;;;22.30;4.93;;;21.50;57.40;;;;;;5028999;28;20248;-75
2023/01/03 12:42:41;;;;;;;14.73;4.28;;;21.50;57.60;;;;;;5046715;28;20396;-75
2023/01/03 12:45:08;;;;;;;19.65;4.43;;;21.50;57.40;;;;;;5050128;28;20021;-75
2023/01/03 12:47:47;;;;;;;21.85;4.50;;;21.50;57.20;;;;;;5050267;28;20032;-76
2023/01/03 12:50:24;;;;;;;23.30;4.53;;;21.50;57.40;;;;;;5050928;28;20029;-80
2023/01/03 12:53:03;;;;;;;23.83;12.80;;;21.50;57.20;;;;;;5033192;28;20036;-76
2023/01/03 12:55:44;;;;;;;24.92;14.05;;;21.30;51.20;;;;;;5012100;28;20034;-75
2023/01/03 12:58:32;;;;;;;22.33;10.02;;;21.20;48.80;;;;;;5048462;28;20020;-76
2023/01/03 13:01:14;;;;;;;26.20;10.93;;;21.20;50.00;;;;;;5032027;28;20025;-76
2023/01/03 13:03:51;;;;;;;20.48;10.43;;;21.20;50.80;;;;;;5048958;28;20037;-76
2023/01/03 13:06:35;;;;;;;23.50;10.43;;;21.20;50.90;;;;;;5049630;28;20029;-75
2023/01/03 13:09:18;;;;;;;18.90;9.50;;;21.30;51.80;;;;;;5049778;28;20047;-79
2023/01/03 13:11:49;;;;;;;23.65;9.63;;;21.30;52.00;;;;;;5030053;28;20048;-76
2023/01/03 13:14:23;;;;;;;20.23;9.27;;;21.40;52.50;;;;;;5049804;28;20068;-73
2023/01/03 13:16:55;;;;;;;32.30;8.68;;;21.40;52.80;;;;;;5049424;28;20052;-73
2023/01/03 13:19:21;;;;;;;25.85;9.50;;;21.50;53.30;;;;;;5049328;28;20033;-73
2023/01/03 13:21:52;;;;;;;26.58;9.50;;;21.50;53.60;;;;;;5031550;28;20021;-73
2023/01/03 13:24:41;;;;;;;23.80;8.95;;;21.50;53.60;;;;;;5048137;28;20090;-70
2023/01/03 13:27:17;;;;;;;37.58;9.70;;;21.50;53.90;;;;;;5049634;28;20504;-72
2023/01/03 13:29:48;;;;;;;23.55;8.88;;;21.50;54.20;;;;;;5049211;28;20419;-73
2023/01/03 13:32:24;;;;;;;22.55;8.38;;;21.50;54.50;;;;;;5048933;28;20043;-73
2023/01/03 13:34:56;;;;;;;30.92;9.07;;;21.50;54.50;;;;;;5014821;28;20037;-72
2023/01/03 13:37:49;;;;;;;21.15;9.05;;;21.40;54.70;;;;;;5014743;28;20112;-72
2023/01/03 13:40:21;;;;;;;22.25;7.82;;;21.40;55.20;;;;;;5030155;28;20021;-72
2023/01/03 13:43:00;;;;;;;20.60;9.00;;;21.40;55.90;;;;;;5049259;28;20914;-75
2023/01/03 13:45:31;;;;;;;24.33;14.25;;;21.40;55.60;;;;;;5048743;28;20025;-75
2023/01/03 13:48:08;;;;;;;50.28;29.63;;;21.30;54.40;;;;;;5049050;28;20294;-75
2023/01/03 13:50:35;;;;;;;21.25;10.20;;;21.10;47.90;;;;;;5048841;28;20040;-75
2023/01/03 13:53:24;;;;;;;22.27;10.27;;;21.00;43.80;;;;;;5045090;28;20017;-72
2023/01/03 13:55:57;;;;;;;20.58;10.02;;;20.80;44.70;;;;;;5047930;28;20406;-72
2023/01/03 13:58:43;;;;;;;22.85;11.65;;;20.90;46.10;;;;;;5048505;28;20036;-72
2023/01/03 14:01:41;;;;;;;20.23;11.27;;;21.00;46.60;;;;;;5029056;28;20017;-72
2023/01/03 14:04:31;;;;;;;19.63;11.32;;;21.00;46.80;;;;;;5048131;28;20435;-71
2023/01/03 14:07:42;;;;;;;20.70;12.00;;;21.00;47.70;;;;;;5048823;28;20037;-72
2023/01/03 14:10:27;;;;;;;17.95;10.80;;;21.10;48.60;;;;;;5047866;28;20112;-72
2023/01/03 14:13:17;;;;;;;24.00;11.65;;;21.10;49.30;;;;;;5047243;28;20029;-72
2023/01/03 14:15:44;;;;;;;24.35;11.25;;;21.10;49.50;;;;;;5044652;28;20043;-73